Time;durP1;ratioP1;P1;durP2;ratioP2;P2;SDS_P1;SDS_P2;PMS_P1;PMS_P2;Temp;Humidity;BMP_temperature;BMP_pressure;BME280_temperature;BME280_humidity;BME280_pressure;Samples;Min_cycle;Max_cycle;Signal;HPM_P1;HPM_P2
2023/12/20 00:02:06;;;;;;;12.20;8.45;;;11.00;99.90;;;;;;7423875;19;20080;-79
2023/12/20 00:04:35;;;;;;;18.50;9.38;;;11.00;99.90;;;;;;7443281;19;20058;-78
2023/12/20 00:07:06;;;;;;;26.52;9.32;;;11.00;99.90;;;;;;7422371;19;20245;-78
2023/12/20 00:09:39;;;;;;;16.67;10.43;;;11.00;99.90;;;;;;7423088;19;20010;-79
2023/12/20 00:12:10;;;;;;;18.60;10.77;;;11.10;99.90;;;;;;7424177;19;20469;-78
2023/12/20 00:14:41;;;;;;;18.93;10.53;;;11.10;99.90;;;;;;7422649;19;20105;-78
2023/12/20 00:17:10;;;;;;;17.35;10.73;;;11.10;99.90;;;;;;7421488;19;20238;-78
2023/12/20 00:19:39;;;;;;;14.70;9.48;;;11.00;99.90;;;;;;7444249;19;20011;-79
2023/12/20 00:22:13;;;;;;;16.35;10.38;;;11.10;99.90;;;;;;7417541;19;20033;-79
2023/12/20 00:24:48;;;;;;;13.27;8.00;;;10.80;99.90;;;;;;7416297;19;20011;-79
2023/12/20 00:27:17;;;;;;;13.20;6.88;;;11.00;99.90;;;;;;7417219;19;20464;-78
2023/12/20 00:29:50;;;;;;;11.52;6.13;;;11.10;99.90;;;;;;7418823;19;20003;-78
2023/12/20 00:32:21;;;;;;;11.57;4.90;;;11.00;99.90;;;;;;7409115;19;20014;-79
2023/12/20 00:34:52;;;;;;;6.07;3.33;;;10.80;99.90;;;;;;7387984;19;20006;-79
2023/12/20 00:37:24;;;;;;;9.13;3.13;;;10.90;99.90;;;;;;7411790;19;20109;-78
2023/12/20 00:39:55;;;;;;;9.38;2.67;;;10.80;99.90;;;;;;7391898;19;20247;-78
2023/12/20 00:42:27;;;;;;;;;;;10.90;99.90;;;;;;7391003;19;20009;-78
2023/12/20 00:44:56;;;;;;;5.53;2.05;;;10.90;99.90;;;;;;7390816;19;19923;-78
2023/12/20 00:47:24;;;;;;;10.80;2.70;;;10.80;99.90;;;;;;7390530;19;20002;-79
2023/12/20 00:49:53;;;;;;;7.57;2.33;;;10.70;99.90;;;;;;7387900;19;20215;-79
2023/12/20 00:52:22;;;;;;;6.60;1.85;;;10.60;99.90;;;;;;7414190;19;20058;-79
2023/12/20 00:54:57;;;;;;;10.27;2.03;;;10.70;99.90;;;;;;7392807;19;20384;-79
2023/12/20 00:57:31;;;;;;;9.73;2.38;;;10.60;99.90;;;;;;7390538;19;20007;-79
2023/12/20 01:00:04;;;;;;;9.75;1.95;;;10.60;99.90;;;;;;7389991;19;20046;-79
2023/12/20 01:02:33;;;;;;;19.23;2.63;;;10.70;99.90;;;;;;7390414;19;20332;-79
2023/12/20 01:05:09;;;;;;;23.40;2.60;;;10.50;99.90;;;;;;7391068;19;20003;-79
2023/12/20 01:07:38;;;;;;;6.25;2.03;;;10.50;99.90;;;;;;7413445;19;20079;-79
2023/12/20 01:10:13;;;;;;;12.55;2.35;;;10.50;99.90;;;;;;7407215;19;20042;-79
2023/12/20 01:12:44;;;;;;;5.35;1.88;;;10.50;99.90;;;;;;7407947;19;20010;-79
2023/12/20 01:15:13;;;;;;;;;;;10.50;99.90;;;;;;7411204;19;20014;-79
2023/12/20 01:17:42;;;;;;;9.77;2.22;;;10.60;99.90;;;;;;7410987;19;19947;-78
2023/12/20 01:20:14;;;;;;;9.20;2.17;;;10.60;99.90;;;;;;7399402;19;20098;-79
2023/12/20 01:22:47;;;;;;;10.50;1.90;;;10.70;99.90;;;;;;7409032;19;20059;-79
2023/12/20 01:25:18;;;;;;;6.68;1.88;;;10.40;99.90;;;;;;7386291;19;20026;-78
2023/12/20 01:27:47;;;;;;;17.55;2.60;;;10.40;99.90;;;;;;7386833;19;20006;-80
2023/12/20 01:30:17;;;;;;;7.50;2.15;;;10.30;99.90;;;;;;7388916;19;20026;-79
2023/12/20 01:32:46;;;;;;;5.20;1.75;;;10.40;99.90;;;;;;7386925;19;20011;-78
2023/12/20 01:35:15;;;;;;;4.35;1.70;;;10.40;99.90;;;;;;7383502;19;20011;-79
2023/12/20 01:37:44;;;;;;;10.32;2.08;;;10.30;99.90;;;;;;7404910;19;20014;-79
2023/12/20 01:40:55;;;;;;;;;;;;;;;;;;;;;
2023/12/20 01:43:38;;;;;;;10.15;1.92;;;10.00;99.90;;;;;;7383647;19;20837;-78
2023/12/20 01:46:19;;;;;;;6.53;1.88;;;9.80;99.90;;;;;;7385862;19;20017;-78
2023/12/20 01:48:50;;;;;;;6.32;1.90;;;9.90;99.90;;;;;;7388619;19;20381;-78
2023/12/20 01:51:23;;;;;;;7.65;1.40;;;10.00;99.90;;;;;;7388104;19;20013;-80
2023/12/20 01:53:52;;;;;;;7.40;1.90;;;9.90;99.90;;;;;;7384244;19;20026;-79
2023/12/20 01:56:28;;;;;;;9.68;2.08;;;10.10;99.90;;;;;;7383872;19;20015;-78
2023/12/20 01:59:04;;;;;;;8.68;1.90;;;9.80;99.90;;;;;;7382996;19;20409;-79
2023/12/20 02:01:33;;;;;;;7.28;1.83;;;10.00;99.90;;;;;;7405469;19;20013;-78
2023/12/20 02:04:03;;;;;;;14.32;1.67;;;10.10;99.90;;;;;;7388004;19;20027;-78
2023/12/20 02:06:37;;;;;;;13.18;2.45;;;10.20;99.90;;;;;;7387508;19;19998;-78
2023/12/20 02:09:07;;;;;;;17.10;1.95;;;10.30;99.90;;;;;;7385874;19;20024;-79
2023/12/20 02:11:36;;;;;;;17.48;2.15;;;10.40;99.90;;;;;;7386885;19;20388;-79
2023/12/20 02:14:09;;;;;;;7.75;2.05;;;10.40;99.90;;;;;;7386947;19;20007;-79
2023/12/20 02:16:40;;;;;;;15.57;1.52;;;10.40;99.90;;;;;;7409390;19;20038;-78
2023/12/20 02:19:15;;;;;;;5.88;1.90;;;10.50;99.90;;;;;;7387999;19;19999;-78
2023/12/20 02:21:50;;;;;;;10.52;1.90;;;10.60;99.90;;;;;;7388582;19;20006;-78
2023/12/20 02:24:29;;;;;;;21.73;2.03;;;10.70;99.90;;;;;;7390118;19;20007;-78
2023/12/20 02:27:04;;;;;;;15.38;2.42;;;10.70;99.90;;;;;;7390118;19;20011;-78
2023/12/20 02:29:34;;;;;;;6.75;2.08;;;10.70;99.90;;;;;;7388865;19;20013;-78
2023/12/20 02:32:03;;;;;;;8.95;2.65;;;10.70;99.90;;;;;;7389893;19;20014;-78
2023/12/20 02:34:34;;;;;;;9.60;2.97;;;10.70;99.90;;;;;;7408263;19;20011;-79
2023/12/20 02:37:08;;;;;;;8.50;3.15;;;10.80;99.90;;;;;;7384123;19;20050;-79
2023/12/20 02:39:40;;;;;;;18.10;2.83;;;10.80;99.90;;;;;;7383921;19;20077;-79
2023/12/20 02:42:10;;;;;;;15.45;3.88;;;10.80;99.90;;;;;;7386004;19;20030;-79
2023/12/20 02:44:39;;;;;;;21.63;3.40;;;10.80;99.90;;;;;;7387920;19;20006;-79
2023/12/20 02:47:07;;;;;;;10.57;3.60;;;10.80;99.90;;;;;;7387948;19;20833;-79
2023/12/20 02:49:36;;;;;;;9.07;3.28;;;10.80;99.90;;;;;;7404341;19;20003;-79
2023/12/20 02:52:09;;;;;;;25.33;3.80;;;10.80;99.90;;;;;;7383267;19;20003;-79
2023/12/20 02:54:41;;;;;;;12.07;3.67;;;10.70;99.90;;;;;;7381557;19;20011;-79
2023/12/20 02:57:14;;;;;;;15.30;3.47;;;10.70;99.90;;;;;;7382151;19;20062;-79
2023/12/20 02:59:43;;;;;;;14.75;3.35;;;10.70;99.90;;;;;;7382345;19;19999;-79
2023/12/20 03:02:15;;;;;;;10.98;2.25;;;10.60;99.90;;;;;;7382523;19;20011;-78
2023/12/20 03:04:43;;;;;;;;;;;10.60;99.90;;;;;;7407490;19;20007;-79
2023/12/20 03:07:15;;;;;;;10.52;1.90;;;10.60;99.90;;;;;;7390205;19;19907;-79
2023/12/20 03:10:08;;;;;;;;;;;;;;;;;;;;;
2023/12/20 03:12:38;;;;;;;10.02;2.47;;;10.50;99.90;;;;;;7380764;19;20011;-79
2023/12/20 03:15:16;;;;;;;10.50;2.00;;;10.40;99.90;;;;;;7379868;19;20082;-78
2023/12/20 03:17:59;;;;;;;10.88;2.20;;;10.40;99.90;;;;;;7380331;19;20003;-79
2023/12/20 03:20:34;;;;;;;12.02;2.53;;;10.40;99.90;;;;;;7380204;19;20027;-78
2023/12/20 03:23:07;;;;;;;12.18;2.90;;;10.40;99.90;;;;;;7379505;19;20226;-78
2023/12/20 03:25:38;;;;;;;7.30;1.67;;;10.40;99.90;;;;;;7402544;19;20011;-78
2023/12/20 03:28:19;;;;;;;12.07;2.60;;;10.30;99.90;;;;;;7384907;19;20258;-78
2023/12/20 03:30:47;;;;;;;11.13;1.73;;;10.30;99.90;;;;;;7387749;19;20239;-79
2023/12/20 03:33:16;;;;;;;8.38;1.67;;;10.30;99.90;;;;;;7398249;19;20023;-78
2023/12/20 03:35:45;;;;;;;8.50;1.73;;;10.30;99.90;;;;;;7397526;19;19999;-78
2023/12/20 03:38:16;;;;;;;11.50;1.70;;;10.20;99.90;;;;;;7398507;19;19999;-78
2023/12/20 03:43:43;;;;;;;12.20;2.33;;;10.20;99.90;;;;;;7297556;19;2004326;-79
2023/12/20 03:46:15;;;;;;;20.17;2.38;;;10.10;99.90;;;;;;7407267;19;20026;-78
2023/12/20 03:48:44;;;;;;;12.27;2.25;;;10.10;99.90;;;;;;7382457;19;20053;-78
2023/12/20 03:51:16;;;;;;;2.97;1.35;;;10.00;99.90;;;;;;7379956;19;20006;-79
2023/12/20 03:53:47;;;;;;;11.02;2.00;;;10.00;99.90;;;;;;7379911;19;20083;-78
2023/12/20 03:56:16;;;;;;;13.48;1.88;;;10.00;99.90;;;;;;7380392;19;20014;-78
2023/12/20 03:58:45;;;;;;;7.32;1.50;;;10.00;99.90;;;;;;7399199;19;20022;-78
2023/12/20 04:01:16;;;;;;;10.07;1.80;;;10.00;99.90;;;;;;7379855;19;20002;-79
2023/12/20 04:03:45;;;;;;;7.13;1.27;;;9.90;99.90;;;;;;7379635;19;20010;-79
2023/12/20 04:06:19;;;;;;;7.78;1.80;;;9.90;99.90;;;;;;7379966;19;20364;-79
2023/12/20 04:16:00;;;;;;;;;;;;;;;;;;;;;
2023/12/20 04:18:31;;;;;;;5.47;1.50;;;9.70;99.90;;;;;;7383616;19;20377;-78
2023/12/20 04:21:00;;;;;;;18.77;1.98;;;9.70;99.90;;;;;;7381690;19;19998;-77
2023/12/20 04:23:31;;;;;;;3.60;1.40;;;9.70;99.90;;;;;;7385547;19;20003;-77
2023/12/20 04:26:02;;;;;;;15.32;1.85;;;9.60;99.90;;;;;;7385548;19;20011;-78
2023/12/20 04:28:31;;;;;;;;;;;9.60;99.90;;;;;;7405431;19;20036;-77
2023/12/20 04:31:00;;;;;;;13.80;2.08;;;9.70;99.90;;;;;;7384754;19;19927;-78
2023/12/20 04:33:28;;;;;;;9.13;1.75;;;9.60;99.90;;;;;;7383855;19;20354;-77
2023/12/20 04:35:57;;;;;;;9.30;1.80;;;9.60;99.90;;;;;;7385896;19;20011;-79
2023/12/20 04:38:26;;;;;;;6.60;1.45;;;9.60;99.90;;;;;;7383189;19;20003;-79
2023/12/20 04:40:55;;;;;;;15.10;2.35;;;9.50;99.90;;;;;;7380592;19;20010;-78
2023/12/20 04:43:29;;;;;;;6.10;2.33;;;9.50;99.90;;;;;;7403111;19;20036;-78
2023/12/20 04:45:58;;;;;;;18.23;2.22;;;9.40;99.90;;;;;;7382577;19;20007;-78
2023/12/20 04:48:27;;;;;;;12.85;1.98;;;9.40;99.90;;;;;;7382695;19;19999;-78
2023/12/20 04:50:58;;;;;;;9.10;1.50;;;9.40;99.90;;;;;;7384515;19;20007;-78
2023/12/20 04:53:27;;;;;;;12.07;2.42;;;9.30;99.90;;;;;;7385357;19;20007;-78
2023/12/20 04:55:56;;;;;;;5.85;1.50;;;9.30;99.90;;;;;;7385126;19;20364;-78
2023/12/20 04:58:29;;;;;;;8.57;1.70;;;9.30;99.90;;;;;;7406912;19;20114;-78
2023/12/20 05:00:58;;;;;;;6.88;1.75;;;9.30;99.90;;;;;;7384348;19;20417;-78
2023/12/20 05:03:27;;;;;;;14.50;2.00;;;9.30;99.90;;;;;;7384127;19;20078;-78
2023/12/20 05:05:56;;;;;;;7.32;2.30;;;9.30;99.90;;;;;;7384277;19;20003;-78
2023/12/20 05:08:24;;;;;;;18.40;2.30;;;9.30;99.90;;;;;;7384514;19;20030;-77
2023/12/20 05:10:53;;;;;;;8.68;2.38;;;9.30;99.90;;;;;;7380653;19;20011;-78
2023/12/20 05:13:25;;;;;;;11.88;2.67;;;9.30;99.90;;;;;;7404295;19;20007;-77
2023/12/20 05:15:56;;;;;;;;;;;9.30;99.90;;;;;;7385943;19;20007;-77
2023/12/20 05:18:25;;;;;;;12.82;2.55;;;9.30;99.90;;;;;;7386207;19;19911;-78
2023/12/20 05:20:55;;;;;;;12.70;2.10;;;9.20;99.90;;;;;;7383733;19;20007;-78
2023/12/20 05:23:23;;;;;;;13.52;2.58;;;9.30;99.90;;;;;;7383068;19;20007;-78
2023/12/20 05:25:52;;;;;;;10.25;2.00;;;9.30;99.90;;;;;;7388547;19;20017;-78
2023/12/20 05:28:21;;;;;;;9.00;2.25;;;9.30;99.90;;;;;;7406928;19;20018;-78
2023/12/20 05:30:49;;;;;;;7.00;1.83;;;9.30;99.90;;;;;;7387481;19;20015;-78
2023/12/20 05:33:22;;;;;;;7.65;2.00;;;9.30;99.90;;;;;;7387778;19;20010;-78
2023/12/20 05:35:51;;;;;;;12.77;2.70;;;9.20;99.90;;;;;;7384229;19;20354;-78
2023/12/20 05:38:19;;;;;;;12.75;2.72;;;9.20;99.90;;;;;;7381672;19;20017;-76
2023/12/20 05:41:07;;;;;;;5.47;2.03;;;9.20;99.90;;;;;;7405365;19;20014;-78
2023/12/20 05:43:35;;;;;;;11.95;3.15;;;9.20;99.90;;;;;;7383422;19;20003;-78
2023/12/20 05:46:07;;;;;;;4.72;2.75;;;9.10;99.90;;;;;;7387272;19;20011;-78
2023/12/20 05:48:39;;;;;;;13.90;1.95;;;9.20;99.90;;;;;;7382413;19;20003;-76
2023/12/20 05:51:07;;;;;;;5.35;1.92;;;9.10;99.90;;;;;;7380246;19;20022;-76
2023/12/20 05:53:36;;;;;;;5.43;1.98;;;9.10;99.90;;;;;;7382513;19;20357;-76
2023/12/20 05:56:06;;;;;;;11.35;2.33;;;9.10;99.90;;;;;;7397002;19;20011;-77
2023/12/20 05:58:38;;;;;;;8.45;1.92;;;9.10;99.90;;;;;;7428116;19;20021;-80
2023/12/20 06:01:08;;;;;;;14.05;2.60;;;9.00;99.90;;;;;;7408593;19;20015;-79
2023/12/20 06:03:39;;;;;;;8.80;2.40;;;9.00;99.90;;;;;;7407074;19;20025;-79
2023/12/20 06:06:09;;;;;;;15.38;2.67;;;9.00;99.90;;;;;;7408012;19;20067;-79
2023/12/20 06:08:39;;;;;;;5.35;2.42;;;9.00;99.90;;;;;;7397227;19;20080;-79
2023/12/20 06:11:07;;;;;;;15.18;2.47;;;9.00;99.90;;;;;;7385502;19;20003;-79
2023/12/20 06:13:36;;;;;;;13.77;2.45;;;9.00;99.90;;;;;;7407594;19;20010;-80
2023/12/20 06:16:06;;;;;;;7.22;2.25;;;9.00;99.90;;;;;;7384630;19;20007;-80
2023/12/20 06:18:36;;;;;;;12.00;1.60;;;9.00;99.90;;;;;;7381764;19;20231;-81
2023/12/20 06:21:08;;;;;;;3.28;1.73;;;9.00;99.90;;;;;;7382781;19;20012;-79
2023/12/20 06:23:38;;;;;;;;;;;9.00;99.90;;;;;;7383232;19;20015;-79
2023/12/20 06:26:07;;;;;;;6.38;2.65;;;9.00;99.90;;;;;;7385189;19;19954;-79
2023/12/20 06:28:36;;;;;;;11.65;2.53;;;9.00;99.90;;;;;;7405545;19;20010;-80
2023/12/20 06:31:05;;;;;;;18.42;4.20;;;8.90;99.90;;;;;;7381391;19;20058;-80
2023/12/20 06:33:34;;;;;;;24.10;4.60;;;9.00;99.90;;;;;;7382636;19;20034;-79
2023/12/20 06:36:02;;;;;;;11.45;5.35;;;9.00;99.90;;;;;;7382832;19;20014;-79
2023/12/20 06:38:34;;;;;;;11.63;3.83;;;9.00;99.90;;;;;;7382818;19;20011;-78
2023/12/20 06:41:02;;;;;;;17.27;3.53;;;8.90;99.90;;;;;;7380125;19;20020;-80
2023/12/20 06:43:32;;;;;;;16.20;3.60;;;8.90;99.90;;;;;;7401804;19;20243;-80
2023/12/20 06:46:01;;;;;;;8.35;3.72;;;8.90;99.90;;;;;;7381533;19;20018;-80
2023/12/20 06:48:29;;;;;;;95.20;10.05;;;8.90;99.90;;;;;;7381227;19;20014;-80
2023/12/20 06:50:58;;;;;;;20.17;6.78;;;8.80;99.90;;;;;;7383210;19;20014;-79
2023/12/20 06:53:27;;;;;;;16.33;5.28;;;8.80;99.90;;;;;;7380492;19;20227;-79
2023/12/20 06:55:58;;;;;;;22.05;4.68;;;8.80;99.90;;;;;;7380527;19;20009;-79
2023/12/20 06:58:27;;;;;;;;;;;8.80;99.90;;;;;;7404124;19;20028;-79
2023/12/20 07:00:56;;;;;;;15.63;4.05;;;8.80;99.90;;;;;;7380923;19;20162;-79
2023/12/20 07:03:24;;;;;;;11.90;4.00;;;8.70;99.90;;;;;;7379673;19;20007;-80
2023/12/20 07:05:53;;;;;;;18.75;5.28;;;8.70;99.90;;;;;;7380649;19;20147;-79
2023/12/20 07:08:24;;;;;;;23.60;7.25;;;8.70;99.90;;;;;;7383419;19;20335;-80
2023/12/20 07:10:53;;;;;;;14.45;5.55;;;8.70;99.90;;;;;;7382896;19;20003;-79
2023/12/20 07:13:24;;;;;;;17.45;6.93;;;8.70;99.90;;;;;;7403064;19;20003;-79
2023/12/20 07:15:59;;;;;;;18.23;6.45;;;8.60;99.90;;;;;;7389028;19;20006;-80
2023/12/20 07:18:31;;;;;;;13.02;5.20;;;8.70;99.90;;;;;;7385206;19;20308;-78
2023/12/20 07:21:00;;;;;;;7.07;3.63;;;8.70;99.90;;;;;;7382932;19;20239;-81
2023/12/20 07:23:29;;;;;;;13.02;4.00;;;8.70;99.90;;;;;;7382064;19;19998;-80
2023/12/20 07:25:57;;;;;;;10.10;4.38;;;8.70;99.90;;;;;;7383598;19;20023;-79
2023/12/20 07:28:29;;;;;;;19.40;4.35;;;8.70;99.90;;;;;;7401760;19;20003;-78
2023/12/20 07:30:58;;;;;;;13.85;5.43;;;8.70;99.90;;;;;;7379410;19;20019;-78
2023/12/20 07:33:27;;;;;;;12.20;3.78;;;8.70;99.90;;;;;;7384097;19;20018;-79
2023/12/20 07:35:56;;;;;;;17.67;6.50;;;8.70;99.90;;;;;;7379921;19;20031;-79
2023/12/20 07:38:24;;;;;;;56.72;24.85;;;8.70;99.90;;;;;;7378927;19;19999;-79
2023/12/20 07:40:53;;;;;;;50.78;23.08;;;8.60;99.90;;;;;;7383871;19;20007;-80
2023/12/20 07:43:22;;;;;;;25.65;9.23;;;8.60;99.90;;;;;;7403407;19;20116;-79
2023/12/20 07:45:53;;;;;;;9.95;4.20;;;8.70;99.90;;;;;;7387379;19;20090;-79
2023/12/20 07:48:22;;;;;;;31.05;6.05;;;8.70;99.90;;;;;;7387558;19;20226;-79
2023/12/20 07:50:52;;;;;;;14.13;5.80;;;8.70;99.90;;;;;;7386434;19;20254;-80
2023/12/20 07:53:21;;;;;;;20.17;6.20;;;8.70;99.90;;;;;;7388147;19;20007;-80
2023/12/20 07:55:52;;;;;;;13.90;5.82;;;8.70;99.90;;;;;;7407392;19;20017;-79
2023/12/20 07:58:21;;;;;;;15.65;5.70;;;8.70;99.90;;;;;;7387163;19;20166;-79
2023/12/20 08:00:53;;;;;;;16.52;4.93;;;8.70;99.90;;;;;;7388561;19;20018;-78
2023/12/20 08:03:21;;;;;;;;;;;8.70;99.90;;;;;;7388866;19;20015;-79
2023/12/20 08:05:50;;;;;;;7.78;1.48;;;8.70;99.90;;;;;;7392111;19;19919;-78
2023/12/20 08:08:19;;;;;;;6.30;2.30;;;8.70;99.90;;;;;;7392037;19;20015;-80
2023/12/20 08:10:47;;;;;;;6.88;1.90;;;8.70;99.90;;;;;;7409958;19;20040;-80
2023/12/20 08:13:16;;;;;;;11.25;2.80;;;8.60;99.90;;;;;;7388951;19;20023;-80
2023/12/20 08:15:45;;;;;;;8.70;3.28;;;8.60;99.90;;;;;;7386555;19;20010;-79
2023/12/20 08:18:16;;;;;;;10.25;3.70;;;8.60;99.90;;;;;;7388694;19;20007;-79
2023/12/20 08:20:45;;;;;;;6.10;2.45;;;8.60;99.90;;;;;;7388014;19;20014;-79
2023/12/20 08:23:13;;;;;;;17.88;2.55;;;8.70;99.90;;;;;;7391117;19;20022;-79
2023/12/20 08:25:42;;;;;;;8.95;2.63;;;8.60;99.90;;;;;;7426997;19;20011;-79
2023/12/20 08:28:11;;;;;;;17.42;4.00;;;8.70;99.90;;;;;;7414409;19;20011;-79
2023/12/20 08:30:40;;;;;;;10.68;3.90;;;8.70;99.90;;;;;;7410337;19;20018;-79
2023/12/20 08:33:12;;;;;;;13.13;5.65;;;8.70;99.90;;;;;;7410405;19;20003;-79
2023/12/20 08:35:43;;;;;;;17.40;4.90;;;8.70;99.90;;;;;;7403719;19;20003;-79
2023/12/20 08:38:12;;;;;;;;;;;8.70;99.90;;;;;;7391174;19;20182;-79
2023/12/20 08:40:41;;;;;;;12.82;4.43;;;8.80;99.90;;;;;;7408681;19;19919;-78
2023/12/20 08:43:10;;;;;;;10.93;4.50;;;8.80;99.90;;;;;;7386064;19;20006;-79
2023/12/20 08:45:38;;;;;;;18.92;4.85;;;8.80;99.90;;;;;;7384019;19;20011;-79
2023/12/20 08:48:08;;;;;;;18.88;4.53;;;8.80;99.90;;;;;;7385218;19;20024;-79
2023/12/20 08:50:37;;;;;;;16.35;5.30;;;8.80;99.90;;;;;;7385291;19;20013;-78
2023/12/20 08:53:08;;;;;;;15.45;5.53;;;8.80;99.90;;;;;;7383786;19;20011;-78
2023/12/20 08:55:37;;;;;;;;;;;8.90;99.90;;;;;;7407485;19;20007;-78
2023/12/20 08:58:07;;;;;;;16.40;4.63;;;8.90;99.90;;;;;;7387812;19;19914;-79
2023/12/20 09:00:36;;;;;;;86.70;10.80;;;8.90;99.90;;;;;;7388096;19;20358;-79
2023/12/20 09:03:05;;;;;;;148.80;17.90;;;9.00;99.90;;;;;;7388034;19;20011;-79
2023/12/20 09:05:34;;;;;;;87.68;10.60;;;9.00;99.90;;;;;;7386574;19;20003;-77
2023/12/20 09:08:03;;;;;;;68.85;9.82;;;9.00;99.90;;;;;;7387019;19;20014;-78
2023/12/20 09:10:35;;;;;;;107.72;12.98;;;9.20;99.90;;;;;;7409048;19;20007;-79
2023/12/20 09:13:04;;;;;;;90.80;13.15;;;9.20;99.90;;;;;;7385106;19;20006;-79
2023/12/20 09:15:34;;;;;;;44.20;7.68;;;9.20;99.90;;;;;;7386009;19;20038;-79
2023/12/20 09:18:03;;;;;;;32.25;6.30;;;9.20;99.90;;;;;;7386259;19;20003;-79
2023/12/20 09:20:32;;;;;;;21.02;5.47;;;9.10;99.90;;;;;;7385971;19;20002;-79
2023/12/20 09:23:01;;;;;;;13.40;5.40;;;9.20;99.90;;;;;;7383281;19;20066;-79
2023/12/20 09:25:31;;;;;;;16.60;5.05;;;9.40;99.90;;;;;;7404402;19;20010;-79
2023/12/20 09:28:03;;;;;;;21.98;6.38;;;9.50;99.90;;;;;;7384915;19;20218;-79
2023/12/20 09:30:31;;;;;;;16.48;4.65;;;9.70;99.90;;;;;;7382687;19;20017;-79
2023/12/20 09:33:00;;;;;;;21.05;4.72;;;9.80;99.90;;;;;;7382460;19;19999;-79
2023/12/20 09:35:29;;;;;;;12.68;4.03;;;9.90;99.90;;;;;;7383882;19;20007;-79
2023/12/20 09:37:58;;;;;;;19.67;3.63;;;10.00;99.90;;;;;;7383158;19;20006;-80
2023/12/20 09:40:29;;;;;;;14.52;3.60;;;10.10;99.90;;;;;;7405881;19;20006;-79
2023/12/20 09:43:05;;;;;;;26.40;3.30;;;10.10;99.90;;;;;;7383068;19;20007;-78
2023/12/20 09:45:34;;;;;;;15.73;2.85;;;10.10;99.90;;;;;;7382698;19;20006;-80
2023/12/20 09:48:04;;;;;;;15.25;3.40;;;10.10;99.90;;;;;;7384084;19;20014;-79
2023/12/20 09:50:33;;;;;;;27.98;3.03;;;10.10;99.90;;;;;;7382168;19;20007;-78
2023/12/20 09:53:05;;;;;;;21.70;3.30;;;10.20;99.90;;;;;;7381656;19;20433;-79
2023/12/20 09:55:34;;;;;;;;;;;9.90;99.90;;;;;;7405243;19;20016;-78
2023/12/20 09:58:08;;;;;;;12.75;2.97;;;9.90;99.90;;;;;;7387060;19;19911;-81
2023/12/20 10:00:37;;;;;;;16.83;3.10;;;9.80;99.90;;;;;;7387416;19;20002;-79
2023/12/20 10:03:08;;;;;;;17.95;2.72;;;9.80;99.90;;;;;;7383885;19;20058;-79
2023/12/20 10:05:37;;;;;;;18.55;3.50;;;9.80;99.90;;;;;;7380129;19;20007;-79
2023/12/20 10:08:07;;;;;;;20.88;3.05;;;9.90;99.90;;;;;;7385941;19;20042;-79
2023/12/20 10:10:35;;;;;;;22.80;3.58;;;9.80;99.90;;;;;;7405857;19;20018;-78
2023/12/20 10:13:09;;;;;;;22.10;3.10;;;10.00;99.90;;;;;;7383422;19;20046;-79
2023/12/20 10:15:38;;;;;;;25.38;3.33;;;10.00;99.90;;;;;;7383128;19;20015;-79
2023/12/20 10:18:08;;;;;;;20.30;3.38;;;9.80;99.90;;;;;;7382638;19;20283;-79
2023/12/20 10:20:36;;;;;;;20.13;2.50;;;9.90;99.90;;;;;;7381411;19;20019;-79
2023/12/20 10:23:06;;;;;;;18.65;2.78;;;10.00;99.90;;;;;;7383666;19;20007;-78
2023/12/20 10:25:36;;;;;;;23.13;3.25;;;10.00;99.90;;;;;;7402537;19;20018;-80
2023/12/20 10:28:19;;;;;;;11.18;2.45;;;9.70;99.90;;;;;;7381642;19;20010;-79
2023/12/20 10:30:48;;;;;;;34.22;3.92;;;9.90;99.90;;;;;;7381896;19;20508;-80
2023/12/20 10:33:25;;;;;;;20.23;3.10;;;10.00;99.90;;;;;;7380574;19;20010;-80
2023/12/20 10:35:55;;;;;;;22.63;2.75;;;10.00;99.90;;;;;;7382915;19;20007;-81
2023/12/20 10:38:24;;;;;;;21.77;2.97;;;10.00;99.90;;;;;;7382546;19;20024;-79
2023/12/20 10:40:57;;;;;;;20.00;3.22;;;10.20;99.90;;;;;;7404820;19;20003;-79
2023/12/20 10:43:31;;;;;;;17.08;2.60;;;10.20;99.90;;;;;;7382293;19;20016;-79
2023/12/20 10:46:01;;;;;;;23.80;3.08;;;10.40;99.90;;;;;;7382498;19;20010;-80
2023/12/20 10:48:31;;;;;;;19.85;2.70;;;10.30;99.90;;;;;;7401280;19;20011;-79
2023/12/20 10:51:00;;;;;;;22.15;3.55;;;10.10;99.90;;;;;;7394046;19;20009;-79
2023/12/20 10:53:29;;;;;;;33.40;3.38;;;10.20;99.90;;;;;;7397539;19;20013;-79
2023/12/20 10:56:05;;;;;;;10.05;2.88;;;10.20;99.90;;;;;;7415364;19;20020;-78
2023/12/20 10:58:38;;;;;;;23.73;2.58;;;10.30;99.90;;;;;;7399574;19;20014;-78
2023/12/20 11:01:07;;;;;;;17.08;2.30;;;10.50;99.90;;;;;;7381777;19;20007;-78
2023/12/20 11:03:39;;;;;;;31.00;3.47;;;10.30;99.90;;;;;;7382522;19;20648;-79
2023/12/20 11:06:10;;;;;;;;;;;10.30;99.90;;;;;;7384857;19;20014;-78
2023/12/20 11:08:44;;;;;;;9.43;2.58;;;10.30;99.90;;;;;;7384198;19;19959;-79
2023/12/20 11:11:21;;;;;;;16.38;2.63;;;10.30;99.90;;;;;;7380480;19;20024;-79
2023/12/20 11:13:59;;;;;;;22.45;2.60;;;10.50;99.90;;;;;;7404480;19;20035;-78
2023/12/20 11:16:30;;;;;;;20.38;3.22;;;10.50;99.90;;;;;;7380510;19;20030;-78
2023/12/20 11:18:58;;;;;;;12.27;3.22;;;10.60;99.90;;;;;;7379531;19;20002;-79
2023/12/20 11:21:27;;;;;;;12.80;2.35;;;10.50;99.90;;;;;;7377860;19;20014;-78
2023/12/20 11:23:56;;;;;;;33.92;2.67;;;10.50;99.90;;;;;;7379760;19;20024;-79
2023/12/20 11:26:29;;;;;;;13.13;2.50;;;10.60;99.90;;;;;;7380249;19;20006;-80
2023/12/20 11:29:34;;;;;;;18.80;2.78;;;10.60;99.90;;;;;;7400228;19;20002;-79
2023/12/20 11:32:04;;;;;;;15.77;3.20;;;10.40;99.90;;;;;;7279241;19;2006166;-78
2023/12/20 11:34:39;;;;;;;19.58;2.63;;;10.30;99.90;;;;;;7401258;19;20007;-78
2023/12/20 11:37:10;;;;;;;13.15;2.10;;;10.40;99.90;;;;;;7379857;19;20299;-81
2023/12/20 11:39:39;;;;;;;16.13;3.05;;;10.50;99.90;;;;;;7380806;19;20007;-79
2023/12/20 11:42:09;;;;;;;12.57;2.40;;;10.50;99.90;;;;;;7381354;19;20698;-80
2023/12/20 11:44:40;;;;;;;22.20;2.92;;;10.60;99.90;;;;;;7379817;19;20011;-78
2023/12/20 11:47:09;;;;;;;;;;;10.70;99.90;;;;;;7381329;19;20019;-78
2023/12/20 11:49:38;;;;;;;22.75;3.17;;;10.80;99.90;;;;;;7400960;19;19907;-78
2023/12/20 11:52:07;;;;;;;20.45;2.85;;;10.60;99.90;;;;;;7382870;19;20349;-78
2023/12/20 11:54:36;;;;;;;21.50;3.58;;;10.60;99.90;;;;;;7379125;19;20011;-79
2023/12/20 11:57:05;;;;;;;17.23;2.72;;;10.70;99.90;;;;;;7379077;19;20011;-79
2023/12/20 11:59:34;;;;;;;20.70;3.08;;;10.90;99.90;;;;;;7379031;19;20068;-79
2023/12/20 12:02:05;;;;;;;22.17;2.92;;;10.90;99.90;;;;;;7399490;19;20058;-79
2023/12/20 12:04:34;;;;;;;;;;;10.90;99.90;;;;;;7380542;19;20011;-79
2023/12/20 12:07:03;;;;;;;24.20;3.05;;;10.80;99.90;;;;;;7380751;19;19903;-79
2023/12/20 12:09:31;;;;;;;14.73;2.45;;;10.80;99.90;;;;;;7380490;19;20006;-78
2023/12/20 12:12:00;;;;;;;21.83;2.78;;;10.80;99.90;;;;;;7380360;19;20038;-80
2023/12/20 12:14:30;;;;;;;19.65;3.08;;;10.80;99.90;;;;;;7378904;19;20710;-80
2023/12/20 12:16:59;;;;;;;13.13;2.85;;;10.70;99.90;;;;;;7400244;19;20014;-79
2023/12/20 12:19:35;;;;;;;22.83;2.70;;;10.90;99.90;;;;;;7378983;19;20015;-79
2023/12/20 12:22:13;;;;;;;21.50;3.03;;;11.10;99.90;;;;;;7378142;19;20007;-79
2023/12/20 12:24:42;;;;;;;22.35;3.22;;;11.00;99.90;;;;;;7379889;19;20249;-79
2023/12/20 12:27:11;;;;;;;16.48;2.40;;;11.00;99.90;;;;;;7380339;19;20026;-79
2023/12/20 12:29:40;;;;;;;24.77;3.50;;;11.00;99.90;;;;;;7387398;19;20030;-79
2023/12/20 12:32:09;;;;;;;27.67;2.80;;;11.10;99.90;;;;;;7383915;19;20019;-79
2023/12/20 12:34:42;;;;;;;20.33;2.80;;;11.20;99.90;;;;;;7404770;19;20382;-79
2023/12/20 12:37:11;;;;;;;17.80;2.60;;;11.10;99.90;;;;;;7385199;19;20378;-79
2023/12/20 12:39:43;;;;;;;21.73;3.45;;;11.20;99.90;;;;;;7385111;19;20007;-78
2023/12/20 12:42:12;;;;;;;13.57;3.15;;;11.10;99.90;;;;;;7386945;19;20026;-79
2023/12/20 12:44:41;;;;;;;16.98;2.45;;;11.00;99.90;;;;;;7389653;19;20022;-78
2023/12/20 12:47:10;;;;;;;17.98;2.67;;;11.10;99.90;;;;;;7389337;19;20078;-78
2023/12/20 12:49:43;;;;;;;22.30;3.08;;;11.10;99.90;;;;;;7405355;19;20002;-78
2023/12/20 12:52:11;;;;;;;21.98;3.10;;;11.10;99.90;;;;;;7385485;19;20030;-79
2023/12/20 12:54:44;;;;;;;13.35;3.60;;;11.20;99.90;;;;;;7385587;19;20034;-78
2023/12/20 12:57:13;;;;;;;29.80;3.95;;;11.10;99.90;;;;;;7387327;19;20246;-79
2023/12/20 12:59:45;;;;;;;17.33;3.45;;;11.20;99.90;;;;;;7387872;19;20006;-78
2023/12/20 13:02:15;;;;;;;11.50;2.70;;;11.20;99.90;;;;;;7385726;19;20014;-79
2023/12/20 13:04:46;;;;;;;29.52;3.47;;;11.30;99.90;;;;;;7406862;19;20010;-79
2023/12/20 13:07:16;;;;;;;32.40;3.85;;;11.30;99.90;;;;;;7393350;19;20007;-79
2023/12/20 13:09:45;;;;;;;20.02;2.83;;;11.40;99.90;;;;;;7402680;19;20011;-80
2023/12/20 13:12:13;;;;;;;27.33;3.22;;;11.50;99.90;;;;;;7407861;19;20014;-80
2023/12/20 13:14:42;;;;;;;18.60;3.00;;;11.40;99.90;;;;;;7407848;19;20019;-79
2023/12/20 13:17:11;;;;;;;17.40;3.10;;;11.40;99.90;;;;;;7410265;19;20022;-79
2023/12/20 13:19:39;;;;;;;20.83;3.17;;;11.30;99.90;;;;;;7416698;19;20003;-79